Time;durP1;ratioP1;P1;durP2;ratioP2;P2;SDS_P1;SDS_P2;PMS_P1;PMS_P2;Temp;Humidity;BMP_temperature;BMP_pressure;BME280_temperature;BME280_humidity;BME280_pressure;Samples;Min_cycle;Max_cycle;Signal;HPM_P1;HPM_P2
2023/08/28 00:02:01;;;;;;;;;;;23.90;51.20;;;;;;1502767;78;813;-52
2023/08/28 00:04:03;;;;;;;;;;;23.90;51.30;;;;;;1509439;77;1333;-51
2023/08/28 00:06:05;;;;;;;;;;;23.80;51.10;;;;;;1501085;77;745;-55
2023/08/28 00:08:07;;;;;;;;;;;23.90;51.30;;;;;;1499150;77;803;-54
2023/08/28 00:10:09;;;;;;;;;;;23.90;51.30;;;;;;1498392;77;1954;-53
2023/08/28 00:12:11;;;;;;;;;;;23.90;51.30;;;;;;1509780;78;746;-54
2023/08/28 00:14:13;;;;;;;;;;;23.90;51.30;;;;;;1501983;77;715;-55
2023/08/28 00:16:15;;;;;;;;;;;23.90;51.30;;;;;;1503274;77;723;-55
2023/08/28 00:18:17;;;;;;;;;;;23.90;51.20;;;;;;1500092;78;1629;-53
2023/08/28 00:20:19;;;;;;;;;;;23.90;51.30;;;;;;1509443;78;1125;-51
2023/08/28 00:22:21;;;;;;;;;;;23.80;51.10;;;;;;1500911;78;764;-52
2023/08/28 00:24:23;;;;;;;;;;;23.90;51.30;;;;;;1499252;77;722;-55
2023/08/28 00:26:25;;;;;;;;;;;23.90;51.20;;;;;;1496646;77;779;-54
2023/08/28 00:28:26;;;;;;;;;;;23.90;51.20;;;;;;1491371;78;793;-54
2023/08/28 00:30:28;;;;;;;;;;;23.90;51.20;;;;;;1494590;78;1922;-55
2023/08/28 00:32:30;;;;;;;;;;;23.90;51.20;;;;;;1499682;78;1703;-55
2023/08/28 00:34:32;;;;;;;;;;;23.90;51.10;;;;;;1496221;77;734;-53
2023/08/28 00:36:34;;;;;;;;;;;23.80;51.00;;;;;;1497085;77;684;-53
2023/08/28 00:38:36;;;;;;;;;;;23.90;51.10;;;;;;1490222;77;841;-52
2023/08/28 00:40:41;;;;;;;;;;;23.90;51.10;;;;;;1487757;77;1136;-53
2023/08/28 00:42:43;;;;;;;;;;;23.90;51.10;;;;;;1496319;77;744;-54
2023/08/28 00:44:45;;;;;;;;;;;23.90;51.20;;;;;;1499809;77;1526;-53
2023/08/28 00:46:47;;;;;;;;;;;23.90;51.20;;;;;;1517940;78;654;-54
2023/08/28 00:48:49;;;;;;;;;;;23.90;51.20;;;;;;1505032;77;1930;-52
2023/08/28 00:50:52;;;;;;;;;;;23.90;51.20;;;;;;1502533;78;1138;-55
2023/08/28 00:52:53;;;;;;;;;;;23.90;51.20;;;;;;1500031;77;747;-55
2023/08/28 00:54:55;;;;;;;;;;;23.90;51.30;;;;;;1501352;77;678;-52
2023/08/28 00:56:57;;;;;;;;;;;23.90;51.20;;;;;;1501860;77;728;-52
2023/08/28 00:58:59;;;;;;;;;;;23.90;51.30;;;;;;1499462;78;1582;-54
2023/08/28 01:01:01;;;;;;;;;;;23.90;51.20;;;;;;1499941;77;1119;-51
2023/08/28 01:03:03;;;;;;;;;;;24.00;51.30;;;;;;1506051;78;803;-54
2023/08/28 01:05:05;;;;;;;;;;;24.00;51.30;;;;;;1511990;77;702;-55
2023/08/28 01:07:18;;;;;;;;;;;23.90;51.20;;;;;;1499767;77;729;-55
2023/08/28 01:09:22;;;;;;;;;;;23.90;51.20;;;;;;1496047;77;1961;-56
2023/08/28 01:11:31;;;;;;;;;;;24.00;51.20;;;;;;1510003;78;1187;-55
2023/08/28 01:13:36;;;;;;;;;;;23.90;51.20;;;;;;1498906;78;1435;-55
2023/08/28 01:15:38;;;;;;;;;;;23.90;51.20;;;;;;1497125;77;1811;-54
2023/08/28 01:17:40;;;;;;;;;;;23.90;51.10;;;;;;1498685;77;744;-53
2023/08/28 01:19:42;;;;;;;;;;;23.90;51.10;;;;;;1502990;77;1096;-55
2023/08/28 01:21:44;;;;;;;;;;;23.90;50.80;;;;;;1503919;78;725;-53
2023/08/28 01:23:54;;;;;;;;;;;23.80;50.70;;;;;;1492696;77;702;-55
2023/08/28 01:25:56;;;;;;;;;;;23.80;50.60;;;;;;1504213;77;781;-55
2023/08/28 01:27:58;;;;;;;;;;;23.90;50.80;;;;;;1504035;77;1600;-55
2023/08/28 01:30:13;;;;;;;;;;;23.90;50.70;;;;;;1504330;78;1915;-52
2023/08/28 01:32:15;;;;;;;;;;;23.90;50.70;;;;;;1494527;77;703;-53
2023/08/28 01:34:16;;;;;;;;;;;23.90;50.70;;;;;;1503022;77;781;-52
2023/08/28 01:36:23;;;;;;;;;;;23.90;50.60;;;;;;1506258;78;791;-55
2023/08/28 01:38:26;;;;;;;;;;;23.80;50.40;;;;;;1491476;77;671;-53
2023/08/28 01:40:30;;;;;;;;;;;23.80;50.40;;;;;;1493098;77;1157;-54
2023/08/28 01:42:31;;;;;;;;;;;23.80;50.30;;;;;;1492197;77;1503;-54
2023/08/28 01:44:33;;;;;;;;;;;23.80;50.30;;;;;;1506275;78;763;-53
2023/08/28 01:46:35;;;;;;;;;;;23.80;50.30;;;;;;1501499;78;740;-55
2023/08/28 01:48:39;;;;;;;;;;;23.90;50.30;;;;;;1500038;78;718;-54
2023/08/28 01:50:40;;;;;;;;;;;23.90;50.40;;;;;;1494243;77;1953;-55
2023/08/28 01:52:42;;;;;;;;;;;23.90;50.40;;;;;;1497571;77;732;-54
2023/08/28 01:54:44;;;;;;;;;;;23.80;50.30;;;;;;1502147;77;657;-53
2023/08/28 01:56:46;;;;;;;;;;;23.80;50.30;;;;;;1499902;78;1733;-51
2023/08/28 01:58:57;;;;;;;;;;;23.80;50.20;;;;;;1501741;78;697;-52
2023/08/28 02:00:59;;;;;;;;;;;23.80;50.00;;;;;;1501370;77;1129;-55
2023/08/28 02:03:01;;;;;;;;;;;23.80;50.00;;;;;;1500141;77;762;-52
2023/08/28 02:05:03;;;;;;;;;;;23.80;50.00;;;;;;1501727;77;681;-51
2023/08/28 02:07:05;;;;;;;;;;;23.80;50.00;;;;;;1500138;78;801;-53
2023/08/28 02:09:07;;;;;;;;;;;23.80;50.10;;;;;;1498127;77;1651;-54
2023/08/28 02:11:09;;;;;;;;;;;23.80;50.10;;;;;;1515896;77;1938;-51
2023/08/28 02:13:11;;;;;;;;;;;23.80;50.00;;;;;;1501318;77;736;-55
2023/08/28 02:15:13;;;;;;;;;;;23.80;50.10;;;;;;1498381;78;750;-52
2023/08/28 02:17:15;;;;;;;;;;;23.80;50.20;;;;;;1497374;78;683;-54
2023/08/28 02:19:17;;;;;;;;;;;23.80;50.10;;;;;;1493269;77;1133;-54
2023/08/28 02:21:19;;;;;;;;;;;23.80;50.10;;;;;;1501941;78;742;-52
2023/08/28 02:23:21;;;;;;;;;;;23.80;50.10;;;;;;1503518;77;1533;-55
2023/08/28 02:25:23;;;;;;;;;;;23.80;50.10;;;;;;1483505;77;726;-51
2023/08/28 02:27:25;;;;;;;;;;;23.80;50.10;;;;;;1500925;78;792;-51
2023/08/28 02:29:27;;;;;;;;;;;23.80;50.00;;;;;;1500167;78;1925;-55
2023/08/28 02:31:29;;;;;;;;;;;23.80;50.00;;;;;;1506100;77;719;-55
2023/08/28 02:33:31;;;;;;;;;;;23.80;49.90;;;;;;1499858;78;727;-54
2023/08/28 02:35:33;;;;;;;;;;;23.80;49.90;;;;;;1501030;78;811;-51
2023/08/28 02:37:35;;;;;;;;;;;23.80;49.90;;;;;;1503506;77;1543;-55
2023/08/28 02:39:38;;;;;;;;;;;23.80;49.80;;;;;;1501531;77;1150;-55
2023/08/28 02:41:39;;;;;;;;;;;23.80;49.90;;;;;;1501502;77;747;-52
2023/08/28 02:43:41;;;;;;;;;;;23.80;49.80;;;;;;1498589;77;817;-55
2023/08/28 02:45:43;;;;;;;;;;;23.80;49.80;;;;;;1506281;78;731;-54
2023/08/28 02:47:45;;;;;;;;;;;23.80;49.80;;;;;;1502665;77;652;-55
2023/08/28 02:49:47;;;;;;;;;;;23.80;49.60;;;;;;1498834;78;1938;-55
2023/08/28 02:51:49;;;;;;;;;;;23.70;49.50;;;;;;1496097;77;1464;-54
2023/08/28 02:53:51;;;;;;;;;;;23.70;49.60;;;;;;1498396;78;727;-52
2023/08/28 02:55:57;;;;;;;;;;;23.80;49.60;;;;;;1501462;77;828;-52
2023/08/28 02:57:59;;;;;;;;;;;23.80;49.40;;;;;;1484263;78;1046;-53
2023/08/28 03:00:01;;;;;;;;;;;23.70;49.40;;;;;;1501213;78;1105;-52
2023/08/28 03:02:03;;;;;;;;;;;23.80;49.50;;;;;;1500329;78;777;-55
2023/08/28 03:04:05;;;;;;;;;;;23.80;49.50;;;;;;1511267;78;791;-54
2023/08/28 03:06:07;;;;;;;;;;;23.80;49.60;;;;;;1497724;77;1514;-55
2023/08/28 03:08:08;;;;;;;;;;;23.70;49.50;;;;;;1498701;77;779;-51
2023/08/28 03:10:10;;;;;;;;;;;23.80;49.60;;;;;;1495252;77;1974;-54
2023/08/28 03:12:12;;;;;;;;;;;23.80;49.50;;;;;;1499327;78;665;-54
2023/08/28 03:14:14;;;;;;;;;;;23.70;49.50;;;;;;1504002;77;755;-52
2023/08/28 03:16:16;;;;;;;;;;;23.80;49.50;;;;;;1502527;77;760;-55
2023/08/28 03:18:18;;;;;;;;;;;23.80;49.50;;;;;;1505362;77;708;-54
2023/08/28 03:20:20;;;;;;;;;;;23.80;49.50;;;;;;1494257;77;1556;-53
2023/08/28 03:22:22;;;;;;;;;;;23.70;49.50;;;;;;1498497;77;755;-54
2023/08/28 03:24:24;;;;;;;;;;;23.80;49.50;;;;;;1495653;78;712;-55
2023/08/28 03:26:28;;;;;;;;;;;23.80;49.40;;;;;;1504954;77;783;-51
2023/08/28 03:28:30;;;;;;;;;;;23.70;49.40;;;;;;1503176;78;1490;-53
2023/08/28 03:30:32;;;;;;;;;;;23.70;49.40;;;;;;1494730;78;1940;-52
2023/08/28 03:32:33;;;;;;;;;;;23.80;49.50;;;;;;1503376;77;766;-52
2023/08/28 03:34:35;;;;;;;;;;;23.70;49.50;;;;;;1498317;77;1276;-55
2023/08/28 03:36:37;;;;;;;;;;;23.80;49.50;;;;;;1497472;78;680;-55
2023/08/28 03:38:39;;;;;;;;;;;23.80;49.40;;;;;;1494996;77;736;-54
2023/08/28 03:40:41;;;;;;;;;;;23.80;49.50;;;;;;1501717;78;1152;-54
2023/08/28 03:42:43;;;;;;;;;;;23.80;49.50;;;;;;1488117;77;720;-52
2023/08/28 03:44:45;;;;;;;;;;;23.70;49.50;;;;;;1494554;77;754;-53
2023/08/28 03:46:47;;;;;;;;;;;23.80;49.60;;;;;;1498818;77;687;-53
2023/08/28 03:48:48;;;;;;;;;;;23.80;49.60;;;;;;1495083;78;1358;-55
2023/08/28 03:50:50;;;;;;;;;;;23.80;49.60;;;;;;1500265;77;1950;-55
2023/08/28 03:52:52;;;;;;;;;;;23.80;49.60;;;;;;1499346;78;871;-53
2023/08/28 03:54:54;;;;;;;;;;;23.70;49.70;;;;;;1498101;77;750;-55
2023/08/28 03:56:56;;;;;;;;;;;23.80;49.70;;;;;;1516029;77;766;-54
2023/08/28 03:58:58;;;;;;;;;;;23.80;49.60;;;;;;1501931;77;932;-53
2023/08/28 04:01:00;;;;;;;;;;;23.70;49.70;;;;;;1502549;78;1571;-52
2023/08/28 04:03:02;;;;;;;;;;;23.80;49.70;;;;;;1498945;78;1415;-55
2023/08/28 04:05:04;;;;;;;;;;;23.80;49.70;;;;;;1507453;77;672;-54
2023/08/28 04:07:06;;;;;;;;;;;23.70;49.70;;;;;;1502349;78;752;-54
2023/08/28 04:09:08;;;;;;;;;;;23.80;49.70;;;;;;1509743;77;1152;-54
2023/08/28 04:11:10;;;;;;;;;;;23.80;49.70;;;;;;1499761;77;1934;-55
2023/08/28 04:13:12;;;;;;;;;;;23.80;49.80;;;;;;1497236;77;713;-55
2023/08/28 04:15:14;;;;;;;;;;;23.80;49.70;;;;;;1502085;77;715;-55
2023/08/28 04:17:16;;;;;;;;;;;23.70;49.80;;;;;;1499856;78;1674;-54
2023/08/28 04:19:18;;;;;;;;;;;23.70;49.70;;;;;;1500401;77;1125;-54
2023/08/28 04:21:20;;;;;;;;;;;23.80;49.70;;;;;;1498142;77;595;-55
2023/08/28 04:23:22;;;;;;;;;;;23.80;49.70;;;;;;1501405;77;762;-50
2023/08/28 04:25:23;;;;;;;;;;;23.80;49.70;;;;;;1504308;78;776;-52
2023/08/28 04:27:25;;;;;;;;;;;23.80;49.70;;;;;;1495734;78;777;-56
2023/08/28 04:29:27;;;;;;;;;;;23.80;49.80;;;;;;1505468;77;1134;-52
2023/08/28 04:31:30;;;;;;;;;;;23.80;49.70;;;;;;1497974;77;1929;-54
2023/08/28 04:33:32;;;;;;;;;;;23.80;49.70;;;;;;1487059;77;897;-54
2023/08/28 04:35:34;;;;;;;;;;;23.70;49.70;;;;;;1505534;78;747;-53
2023/08/28 04:37:35;;;;;;;;;;;23.70;49.70;;;;;;1501304;78;719;-53
2023/08/28 04:39:37;;;;;;;;;;;23.80;49.70;;;;;;1501361;77;1173;-55
2023/08/28 04:41:39;;;;;;;;;;;23.70;49.60;;;;;;1497306;77;678;-54
2023/08/28 04:43:41;;;;;;;;;;;23.70;49.60;;;;;;1501519;77;832;-50
2023/08/28 04:45:43;;;;;;;;;;;23.70;49.60;;;;;;1496243;77;1477;-54
2023/08/28 04:47:45;;;;;;;;;;;23.80;49.60;;;;;;1499248;78;825;-55
2023/08/28 04:49:47;;;;;;;;;;;23.80;49.50;;;;;;1498224;78;1149;-54
2023/08/28 04:51:49;;;;;;;;;;;23.70;49.60;;;;;;1500692;78;1925;-55
2023/08/28 04:53:50;;;;;;;;;;;23.80;49.60;;;;;;1489390;78;770;-53
2023/08/28 04:55:53;;;;;;;;;;;23.80;49.60;;;;;;1492635;77;695;-54
2023/08/28 04:57:54;;;;;;;;;;;23.70;49.60;;;;;;1508020;77;1295;-53
2023/08/28 04:59:56;;;;;;;;;;;23.70;49.60;;;;;;1489225;77;1121;-52
2023/08/28 05:01:58;;;;;;;;;;;23.70;49.60;;;;;;1501706;78;894;-54
2023/08/28 05:04:00;;;;;;;;;;;23.70;49.60;;;;;;1502179;78;806;-54
2023/08/28 05:06:02;;;;;;;;;;;23.70;49.60;;;;;;1506592;78;750;-55
2023/08/28 05:08:05;;;;;;;;;;;23.70;49.60;;;;;;1492743;78;652;-54
2023/08/28 05:10:07;;;;;;;;;;;23.70;49.60;;;;;;1506667;78;1156;-52
2023/08/28 05:12:09;;;;;;;;;;;23.80;49.50;;;;;;1499333;77;1934;-52
2023/08/28 05:14:11;;;;;;;;;;;23.70;49.50;;;;;;1506841;77;695;-53
2023/08/28 05:16:13;;;;;;;;;;;23.70;49.60;;;;;;1506952;78;707;-53
2023/08/28 05:18:15;;;;;;;;;;;23.70;49.50;;;;;;1495201;78;798;-55
2023/08/28 05:20:17;;;;;;;;;;;23.70;49.40;;;;;;1502669;77;1155;-54
2023/08/28 05:22:19;;;;;;;;;;;23.60;49.40;;;;;;1496242;78;754;-55
2023/08/28 05:24:21;;;;;;;;;;;23.70;49.50;;;;;;1501435;77;814;-52
2023/08/28 05:26:23;;;;;;;;;;;23.70;49.50;;;;;;1502282;77;1570;-53
2023/08/28 05:28:24;;;;;;;;;;;23.70;49.70;;;;;;1500501;78;726;-53
2023/08/28 05:30:26;;;;;;;;;;;23.60;49.50;;;;;;1494884;78;1152;-54
2023/08/28 05:32:28;;;;;;;;;;;23.70;49.60;;;;;;1509864;78;1942;-55
2023/08/28 05:34:32;;;;;;;;;;;23.70;49.70;;;;;;1507411;77;754;-55
2023/08/28 05:36:34;;;;;;;;;;;23.70;49.70;;;;;;1491674;78;773;-54
2023/08/28 05:38:36;;;;;;;;;;;23.70;49.70;;;;;;1497764;77;706;-55
2023/08/28 05:40:38;;;;;;;;;;;23.70;49.70;;;;;;1510376;78;1304;-55
2023/08/28 05:42:39;;;;;;;;;;;23.70;49.70;;;;;;1504158;78;830;-52
2023/08/28 05:44:42;;;;;;;;;;;23.70;49.70;;;;;;1499533;78;776;-55
2023/08/28 05:46:44;;;;;;;;;;;23.70;50.00;;;;;;1501420;78;708;-54
2023/08/28 05:48:46;;;;;;;;;;;23.60;49.60;;;;;;1503509;77;795;-55
2023/08/28 05:50:51;;;;;;;;;;;23.70;49.60;;;;;;1498462;78;1946;-55
2023/08/28 05:52:52;;;;;;;;;;;23.60;49.50;;;;;;1501547;77;707;-52
2023/08/28 05:54:54;;;;;;;;;;;23.70;49.70;;;;;;1503320;77;1561;-51
2023/08/28 05:56:56;;;;;;;;;;;23.60;49.40;;;;;;1503888;77;763;-54
2023/08/28 05:58:58;;;;;;;;;;;23.60;49.40;;;;;;1500846;78;712;-54
2023/08/28 06:01:00;;;;;;;;;;;23.70;49.50;;;;;;1502214;77;1623;-55
2023/08/28 06:03:02;;;;;;;;;;;23.60;49.40;;;;;;1496555;77;724;-55
2023/08/28 06:05:04;;;;;;;;;;;23.60;49.40;;;;;;1494718;77;701;-53
2023/08/28 06:07:06;;;;;;;;;;;23.60;49.40;;;;;;1503576;78;791;-53
2023/08/28 06:09:08;;;;;;;;;;;23.60;49.40;;;;;;1511419;77;1575;-52
2023/08/28 06:11:09;;;;;;;;;;;23.60;49.30;;;;;;1495390;78;1933;-53
2023/08/28 06:13:12;;;;;;;;;;;23.60;49.30;;;;;;1494436;77;701;-53
2023/08/28 06:15:17;;;;;;;;;;;23.60;49.30;;;;;;1508530;77;729;-55
2023/08/28 06:17:17;;;;;;;;;;;23.60;49.30;;;;;;1499996;77;1678;-55
2023/08/28 06:19:19;;;;;;;;;;;23.60;49.40;;;;;;1499890;78;1120;-55
2023/08/28 06:21:21;;;;;;;;;;;23.60;49.30;;;;;;1493516;78;704;-54
2023/08/28 06:23:23;;;;;;;;;;;23.60;49.30;;;;;;1490797;78;1601;-53
2023/08/28 06:25:25;;;;;;;;;;;23.60;49.30;;;;;;1506467;77;779;-51
2023/08/28 06:27:27;;;;;;;;;;;23.60;49.40;;;;;;1501090;78;814;-55
2023/08/28 06:29:28;;;;;;;;;;;23.60;49.40;;;;;;1494981;77;1152;-53
2023/08/28 06:31:30;;;;;;;;;;;23.60;49.40;;;;;;1487688;78;1950;-53
2023/08/28 06:33:32;;;;;;;;;;;23.60;49.40;;;;;;1493047;77;747;-53
2023/08/28 06:35:34;;;;;;;;;;;23.60;49.30;;;;;;1504693;77;697;-52
2023/08/28 06:37:36;;;;;;;;;;;23.60;49.40;;;;;;1508411;77;1527;-53
2023/08/28 06:39:38;;;;;;;;;;;23.60;49.50;;;;;;1501044;78;1171;-51
2023/08/28 06:41:40;;;;;;;;;;;23.60;49.50;;;;;;1495728;78;810;-54
2023/08/28 06:43:42;;;;;;;;;;;23.60;49.40;;;;;;1494368;78;730;-55
2023/08/28 06:45:44;;;;;;;;;;;23.60;49.70;;;;;;1493113;78;731;-51
2023/08/28 06:47:46;;;;;;;;;;;23.60;49.50;;;;;;1497164;78;729;-55
2023/08/28 06:49:48;;;;;;;;;;;23.60;49.40;;;;;;1499612;78;1137;-55
2023/08/28 06:51:50;;;;;;;;;;;23.60;49.40;;;;;;1507852;77;1944;-55
2023/08/28 06:53:52;;;;;;;;;;;23.60;49.40;;;;;;1522367;76;729;-55
2023/08/28 06:55:54;;;;;;;;;;;23.60;49.40;;;;;;1490676;78;656;-53
2023/08/28 06:57:56;;;;;;;;;;;23.60;49.30;;;;;;1502918;77;704;-52
2023/08/28 06:59:58;;;;;;;;;;;23.60;49.30;;;;;;1499395;78;1081;-53
2023/08/28 07:01:59;;;;;;;;;;;23.60;49.40;;;;;;1495468;78;691;-52
2023/08/28 07:04:03;;;;;;;;;;;23.60;49.40;;;;;;1504571;78;729;-55
2023/08/28 07:06:05;;;;;;;;;;;23.60;49.40;;;;;;1502059;77;1499;-55
2023/08/28 07:08:07;;;;;;;;;;;23.60;49.40;;;;;;1500100;77;688;-53
2023/08/28 07:10:09;;;;;;;;;;;23.60;49.40;;;;;;1503188;77;1171;-53
2023/08/28 07:12:11;;;;;;;;;;;23.50;49.40;;;;;;1509074;77;1936;-52
2023/08/28 07:14:13;;;;;;;;;;;23.60;49.40;;;;;;1502009;77;795;-54
2023/08/28 07:16:15;;;;;;;;;;;23.50;49.40;;;;;;1497069;77;750;-51
2023/08/28 07:18:17;;;;;;;;;;;23.50;49.50;;;;;;1488973;77;656;-55
2023/08/28 07:20:20;;;;;;;;;;;23.60;49.50;;;;;;1491163;77;1409;-52
2023/08/28 07:22:22;;;;;;;;;;;23.50;49.60;;;;;;1493837;77;755;-53
2023/08/28 07:24:24;;;;;;;;;;;23.60;49.60;;;;;;1503668;77;757;-53
2023/08/28 07:26:26;;;;;;;;;;;23.60;49.50;;;;;;1499732;77;754;-55
2023/08/28 07:28:28;;;;;;;;;;;23.60;49.50;;;;;;1501034;78;674;-55
2023/08/28 07:30:31;;;;;;;;;;;23.50;49.40;;;;;;1499825;77;1169;-52
2023/08/28 07:32:32;;;;;;;;;;;23.50;49.50;;;;;;1510266;78;1929;-52
2023/08/28 07:34:34;;;;;;;;;;;23.60;49.50;;;;;;1481276;79;725;-54
2023/08/28 07:36:37;;;;;;;;;;;23.50;49.50;;;;;;1492172;79;822;-52
2023/08/28 07:38:43;;;;;;;;;;;23.50;49.40;;;;;;1484707;79;575;-54
2023/08/28 07:40:43;;;;;;;;;;;23.50;49.50;;;;;;1461034;80;1523;-55
2023/08/28 07:42:45;;;;;;;;;;;23.50;49.70;;;;;;1460987;80;731;-53
2023/08/28 07:44:47;;;;;;;;;;;23.50;49.60;;;;;;1485589;78;736;-53
2023/08/28 07:46:49;;;;;;;;;;;23.60;49.70;;;;;;1443870;80;1516;-54
2023/08/28 07:48:51;;;;;;;;;;;23.50;49.70;;;;;;1454564;80;683;-52
2023/08/28 07:50:53;;;;;;;;;;;23.60;49.70;;;;;;1471603;80;1110;-54
2023/08/28 07:52:55;;;;;;;;;;;23.50;49.60;;;;;;1485280;78;1938;-55
2023/08/28 07:54:57;;;;;;;;;;;23.50;49.40;;;;;;1481167;79;725;-53
2023/08/28 07:56:59;;;;;;;;;;;23.50;49.50;;;;;;1452021;80;789;-54
2023/08/28 07:59:00;;;;;;;;;;;23.60;49.60;;;;;;1462055;80;800;-54
2023/08/28 08:01:02;;;;;;;;;;;23.50;49.50;;;;;;1482763;78;1558;-53
2023/08/28 08:03:04;;;;;;;;;;;23.60;49.50;;;;;;1455965;80;1065;-51
2023/08/28 08:05:07;;;;;;;;;;;23.50;49.50;;;;;;1511327;77;752;-54
2023/08/28 08:07:09;;;;;;;;;;;23.50;49.50;;;;;;1505932;77;675;-55
2023/08/28 08:09:11;;;;;;;;;;;23.50;49.50;;;;;;1502126;78;1148;-54
2023/08/28 08:11:13;;;;;;;;;;;23.50;49.40;;;;;;1491498;77;726;-54
2023/08/28 08:13:15;;;;;;;;;;;23.50;49.40;;;;;;1499564;77;1957;-51
2023/08/28 08:15:17;;;;;;;;;;;23.50;49.40;;;;;;1503832;77;1431;-55
2023/08/28 08:17:19;;;;;;;;;;;23.50;49.40;;;;;;1501603;77;715;-54
2023/08/28 08:19:20;;;;;;;;;;;23.50;49.40;;;;;;1502236;77;1164;-53
2023/08/28 08:21:22;;;;;;;;;;;23.50;49.40;;;;;;1496630;77;715;-54
2023/08/28 08:23:26;;;;;;;;;;;23.50;49.40;;;;;;1501293;77;704;-55
2023/08/28 08:25:28;;;;;;;;;;;23.50;49.40;;;;;;1512691;77;784;-51
2023/08/28 08:27:30;;;;;;;;;;;23.50;49.40;;;;;;1502452;78;666;-54
2023/08/28 08:29:31;;;;;;;;;;;23.50;49.40;;;;;;1502999;77;1362;-54
2023/08/28 08:31:33;;;;;;;;;;;23.50;49.40;;;;;;1503085;77;749;-54
2023/08/28 08:33:35;;;;;;;;;;;23.50;49.40;;;;;;1503483;77;1947;-55
2023/08/28 08:35:37;;;;;;;;;;;23.50;49.40;;;;;;1502285;77;731;-55
2023/08/28 08:37:39;;;;;;;;;;;23.60;49.40;;;;;;1507501;77;701;-54
2023/08/28 08:39:43;;;;;;;;;;;23.50;49.40;;;;;;1499152;77;1141;-53
2023/08/28 08:41:45;;;;;;;;;;;23.50;49.40;;;;;;1502724;78;1328;-54
2023/08/28 08:43:47;;;;;;;;;;;23.50;49.40;;;;;;1507379;77;1503;-55
2023/08/28 08:45:48;;;;;;;;;;;23.50;49.50;;;;;;1511303;77;792;-56
2023/08/28 08:47:51;;;;;;;;;;;23.50;49.50;;;;;;1508492;78;734;-55
2023/08/28 08:49:53;;;;;;;;;;;23.50;49.50;;;;;;1503995;77;1116;-52
2023/08/28 08:51:55;;;;;;;;;;;23.50;49.60;;;;;;1500157;77;1942;-54
2023/08/28 08:54:06;;;;;;;;;;;23.50;49.70;;;;;;1496342;77;722;-55
2023/08/28 08:56:08;;;;;;;;;;;23.50;49.80;;;;;;1506767;78;891;-53
2023/08/28 08:58:11;;;;;;;;;;;23.50;49.70;;;;;;1501837;77;1534;-53
2023/08/28 09:00:18;;;;;;;;;;;23.50;49.80;;;;;;1502188;77;2036;-54
2023/08/28 09:02:20;;;;;;;;;;;23.50;49.70;;;;;;1493891;78;702;-55
2023/08/28 09:04:22;;;;;;;;;;;23.60;49.80;;;;;;1510525;78;711;-52
2023/08/28 09:06:25;;;;;;;;;;;23.50;49.70;;;;;;1494606;78;764;-54
2023/08/28 09:08:28;;;;;;;;;;;23.50;49.70;;;;;;1497952;77;689;-55
2023/08/28 09:10:30;;;;;;;;;;;23.50;49.70;;;;;;1503445;77;1162;-54
2023/08/28 09:12:32;;;;;;;;;;;23.50;49.80;;;;;;1509928;77;1922;-55
2023/08/28 09:14:34;;;;;;;;;;;23.50;49.90;;;;;;1514868;77;766;-54
2023/08/28 09:16:36;;;;;;;;;;;23.50;49.90;;;;;;1501851;77;750;-54
2023/08/28 09:18:38;;;;;;;;;;;23.50;49.80;;;;;;1502922;78;666;-54
2023/08/28 09:20:40;;;;;;;;;;;23.50;49.90;;;;;;1501653;77;1184;-55
2023/08/28 09:22:49;;;;;;;;;;;23.50;49.80;;;;;;1502942;77;754;-51
2023/08/28 09:24:51;;;;;;;;;;;23.50;49.90;;;;;;1507140;77;747;-51
2023/08/28 09:26:53;;;;;;;;;;;23.40;49.70;;;;;;1502210;78;1668;-55
2023/08/28 09:29:03;;;;;;;;;;;23.50;49.90;;;;;;1501497;78;800;-53
2023/08/28 09:31:05;;;;;;;;;;;23.50;49.90;;;;;;1491537;78;683;-52
2023/08/28 09:33:07;;;;;;;;;;;23.50;49.90;;;;;;1502425;78;1943;-54
2023/08/28 09:35:09;;;;;;;;;;;23.50;50.10;;;;;;1496633;77;787;-55
2023/08/28 09:37:12;;;;;;;;;;;23.40;50.00;;;;;;1503133;78;734;-52
2023/08/28 09:39:13;;;;;;;;;;;23.50;50.20;;;;;;1502729;77;1661;-54
2023/08/28 09:41:15;;;;;;;;;;;23.50;50.10;;;;;;1514661;77;824;-54
2023/08/28 09:43:17;;;;;;;;;;;23.40;50.00;;;;;;1501832;77;714;-52
2023/08/28 09:45:19;;;;;;;;;;;23.50;50.10;;;;;;1510756;77;854;-54
2023/08/28 09:47:21;;;;;;;;;;;23.50;50.10;;;;;;1512068;78;720;-55
2023/08/28 09:49:23;;;;;;;;;;;23.50;50.30;;;;;;1503587;77;1157;-55
2023/08/28 09:51:28;;;;;;;;;;;23.50;50.20;;;;;;1479748;79;956;-54
2023/08/28 09:53:30;;;;;;;;;;;23.50;50.00;;;;;;1508042;77;1926;-53
2023/08/28 09:55:32;;;;;;;;;;;23.50;50.00;;;;;;1504142;78;737;-53
2023/08/28 09:57:34;;;;;;;;;;;23.50;50.00;;;;;;1511861;78;779;-54
2023/08/28 09:59:36;;;;;;;;;;;23.50;49.90;;;;;;1502122;77;1157;-55
2023/08/28 10:01:38;;;;;;;;;;;23.50;50.00;;;;;;1484558;78;1380;-55
2023/08/28 10:03:40;;;;;;;;;;;23.50;50.00;;;;;;1503923;77;752;-53
2023/08/28 10:05:43;;;;;;;;;;;23.50;50.00;;;;;;1503189;78;759;-52
2023/08/28 10:07:45;;;;;;;;;;;23.50;50.00;;;;;;1503062;77;1536;-51
2023/08/28 10:09:47;;;;;;;;;;;23.50;50.00;;;;;;1502201;78;1177;-54
2023/08/28 10:11:50;;;;;;;;;;;23.40;50.00;;;;;;1501840;77;743;-55
2023/08/28 10:13:53;;;;;;;;;;;23.50;50.00;;;;;;1505748;77;1945;-55
2023/08/28 10:16:05;;;;;;;;;;;23.50;50.00;;;;;;1514265;77;741;-54
2023/08/28 10:18:10;;;;;;;;;;;23.40;49.90;;;;;;1499001;77;645;-51
2023/08/28 10:20:12;;;;;;;;;;;23.50;49.90;;;;;;1499663;77;1115;-55
2023/08/28 10:22:14;;;;;;;;;;;23.50;50.00;;;;;;1505223;78;1286;-54
2023/08/28 10:24:15;;;;;;;;;;;23.50;50.00;;;;;;1507999;77;686;-53
2023/08/28 10:26:17;;;;;;;;;;;23.40;49.90;;;;;;1512519;77;799;-53
2023/08/28 10:28:21;;;;;;;;;;;23.40;50.00;;;;;;1513841;78;746;-52
2023/08/28 10:30:23;;;;;;;;;;;23.40;50.00;;;;;;1497153;77;1132;-53
2023/08/28 10:32:24;;;;;;;;;;;23.50;50.20;;;;;;1503201;77;1942;-54
2023/08/28 10:34:26;;;;;;;;;;;23.40;50.00;;;;;;1500567;77;890;-55
2023/08/28 10:36:28;;;;;;;;;;;23.40;50.00;;;;;;1501827;77;1711;-52
2023/08/28 10:38:30;;;;;;;;;;;23.50;50.20;;;;;;1508677;77;815;-52
2023/08/28 10:40:32;;;;;;;;;;;23.50;50.10;;;;;;1503603;77;1133;-53
2023/08/28 10:42:34;;;;;;;;;;;23.50;50.00;;;;;;1503756;77;794;-52
2023/08/28 10:44:36;;;;;;;;;;;23.40;49.90;;;;;;1483471;79;747;-55
2023/08/28 10:46:38;;;;;;;;;;;23.50;50.10;;;;;;1500686;78;733;-54
2023/08/28 10:48:40;;;;;;;;;;;23.50;50.10;;;;;;1503556;78;726;-54
2023/08/28 10:50:42;;;;;;;;;;;23.50;50.20;;;;;;1503192;78;1628;-52
2023/08/28 10:52:46;;;;;;;;;;;23.50;50.00;;;;;;1502019;77;1946;-55
2023/08/28 10:54:48;;;;;;;;;;;23.50;50.00;;;;;;1501722;77;1135;-52
2023/08/28 10:56:52;;;;;;;;;;;23.50;50.00;;;;;;1505082;78;809;-53
2023/08/28 10:58:54;;;;;;;;;;;23.50;50.00;;;;;;1504382;77;1898;-51
2023/08/28 11:01:17;;;;;;;;;;;23.50;50.00;;;;;;1480894;78;1308;-51
2023/08/28 11:03:19;;;;;;;;;;;23.50;50.00;;;;;;1502609;77;803;-55
2023/08/28 11:05:21;;;;;;;;;;;23.50;50.00;;;;;;1497032;78;1303;-53
2023/08/28 11:07:30;;;;;;;;;;;23.50;50.00;;;;;;1502978;78;805;-54
2023/08/28 11:09:33;;;;;;;;;;;23.40;49.90;;;;;;1503562;78;1143;-52
2023/08/28 11:11:35;;;;;;;;;;;23.50;50.00;;;;;;1503913;77;736;-52
2023/08/28 11:13:37;;;;;;;;;;;23.40;50.00;;;;;;1502678;77;1953;-53
2023/08/28 11:15:42;;;;;;;;;;;23.50;50.20;;;;;;1503988;78;790;-54
2023/08/28 11:17:44;;;;;;;;;;;23.40;50.00;;;;;;1512626;77;1284;-54
2023/08/28 11:19:56;;;;;;;;;;;23.50;50.20;;;;;;1502337;77;1179;-54
2023/08/28 11:22:03;;;;;;;;;;;23.50;50.20;;;;;;1502987;77;726;-55
2023/08/28 11:24:04;;;;;;;;;;;23.50;50.10;;;;;;1501684;77;1532;-53
2023/08/28 11:26:20;;;;;;;;;;;23.50;50.10;;;;;;1466856;78;1218;-54
2023/08/28 11:28:26;;;;;;;;;;;23.50;50.10;;;;;;1505318;77;699;-52
2023/08/28 11:30:28;;;;;;;;;;;23.40;50.00;;;;;;1498438;78;1153;-50
2023/08/28 11:32:30;;;;;;;;;;;23.40;50.10;;;;;;1478524;78;1592;-51
2023/08/28 11:34:32;;;;;;;;;;;23.50;50.20;;;;;;1503894;77;1938;-52
2023/08/28 11:36:41;;;;;;;;;;;23.50;50.20;;;;;;1503300;77;719;-54
2023/08/28 11:38:42;;;;;;;;;;;23.50;50.10;;;;;;1513288;77;772;-53
2023/08/28 11:40:44;;;;;;;;;;;23.50;50.00;;;;;;1499410;77;1132;-55
2023/08/28 11:42:47;;;;;;;;;;;23.50;50.20;;;;;;1494451;77;736;-56
2023/08/28 11:44:49;;;;;;;;;;;23.40;50.10;;;;;;1503798;77;698;-55
2023/08/28 11:46:51;;;;;;;;;;;23.50;50.30;;;;;;1503749;78;1547;-55
2023/08/28 11:48:53;;;;;;;;;;;23.50;50.30;;;;;;1462324;80;736;-56
2023/08/28 11:51:00;;;;;;;;;;;23.50;50.20;;;;;;1522513;77;1116;-56
2023/08/28 11:53:02;;;;;;;;;;;23.50;50.30;;;;;;1514806;77;1914;-52
2023/08/28 11:55:04;;;;;;;;;;;23.50;50.30;;;;;;1523329;77;789;-54
2023/08/28 11:57:06;;;;;;;;;;;23.50;50.20;;;;;;1507326;77;747;-56
2023/08/28 11:59:08;;;;;;;;;;;23.50;50.20;;;;;;1527688;77;1124;-56
2023/08/28 12:01:12;;;;;;;;;;;23.50;50.20;;;;;;1517442;77;1333;-55
2023/08/28 12:03:19;;;;;;;;;;;23.50;50.10;;;;;;1457695;80;1616;-54
2023/08/28 12:05:21;;;;;;;;;;;23.50;50.20;;;;;;1456567;80;660;-55
2023/08/28 12:07:25;;;;;;;;;;;23.50;50.20;;;;;;1483089;78;676;-55
2023/08/28 12:09:27;;;;;;;;;;;23.50;50.10;;;;;;1458043;80;1126;-55
2023/08/28 12:11:29;;;;;;;;;;;23.50;50.10;;;;;;1455820;80;736;-54